createdAt,value
2018-05-09T00:00:00.072Z,9.4
2018-05-09T00:01:00.117Z,9.4
2018-05-09T00:02:00.178Z,9.4
2018-05-09T00:03:00.102Z,9.4
2018-05-09T00:04:00.034Z,9.3
2018-05-09T00:05:00.139Z,9.3
2018-05-09T00:06:00.044Z,9.2
2018-05-09T00:07:00.115Z,9.2
2018-05-09T00:08:00.098Z,9.2
2018-05-09T00:09:00.167Z,9.2
2018-05-09T00:10:00.135Z,9.2
2018-05-09T00:11:00.169Z,9.0
2018-05-09T00:12:00.161Z,9.0
2018-05-09T00:13:00.154Z,9.0
2018-05-09T00:14:00.101Z,9.1
2018-05-09T00:15:00.171Z,9.1
2018-05-09T00:16:00.060Z,9.1
2018-05-09T00:17:00.110Z,9.1
2018-05-09T00:18:00.086Z,9.1
2018-05-09T00:19:00.120Z,9.3
2018-05-09T00:20:00.144Z,9.3
2018-05-09T00:21:00.140Z,9.2
2018-05-09T00:22:00.062Z,9.2
2018-05-09T00:23:00.148Z,9.2
2018-05-09T00:24:00.032Z,9.2
2018-05-09T00:25:00.386Z,9.2
2018-05-09T00:26:00.123Z,9.2
2018-05-09T00:27:00.116Z,9.2
2018-05-09T00:28:00.147Z,9.2
2018-05-09T00:29:00.127Z,9.0
2018-05-09T00:30:00.114Z,9.0
2018-05-09T00:31:00.092Z,9.0
2018-05-09T00:32:00.160Z,8.9
2018-05-09T00:33:00.123Z,8.9
2018-05-09T00:34:00.145Z,8.9
2018-05-09T00:35:00.068Z,8.9
2018-05-09T00:36:00.086Z,8.9
2018-05-09T00:37:00.098Z,8.9
2018-05-09T00:38:00.091Z,8.9
2018-05-09T00:39:00.111Z,8.9
2018-05-09T00:40:00.067Z,8.9
2018-05-09T00:41:00.160Z,8.9
2018-05-09T00:42:00.151Z,9.0
2018-05-09T00:43:00.637Z,9.0
2018-05-09T00:44:00.135Z,9.0
2018-05-09T00:45:00.264Z,9.0
2018-05-09T00:46:00.199Z,9.0
2018-05-09T00:47:00.114Z,9.0
2018-05-09T00:48:00.167Z,9.0
2018-05-09T00:49:00.165Z,9.0
2018-05-09T00:50:00.199Z,9.0
2018-05-09T00:51:00.105Z,9.0
2018-05-09T00:52:00.170Z,9.0
2018-05-09T00:53:00.127Z,9.0
2018-05-09T00:54:00.121Z,9.0
2018-05-09T00:55:00.157Z,9.0
2018-05-09T00:56:00.149Z,9.0
2018-05-09T00:57:00.158Z,9.1
2018-05-09T00:58:00.445Z,9.1
2018-05-09T00:59:00.168Z,9.1
2018-05-09T01:00:00.126Z,9.2
2018-05-09T01:01:00.129Z,9.2
2018-05-09T01:02:00.173Z,9.1
2018-05-09T01:03:00.127Z,9.1
2018-05-09T01:04:00.121Z,9.1
2018-05-09T01:05:00.178Z,9.1
2018-05-09T01:06:00.190Z,9.1
2018-05-09T01:07:00.127Z,9.2
2018-05-09T01:08:00.114Z,9.2
2018-05-09T01:09:00.556Z,9.2
2018-05-09T01:10:00.185Z,9.5
2018-05-09T01:11:00.532Z,9.5
2018-05-09T01:12:00.227Z,9.5
2018-05-09T01:13:00.268Z,9.5
2018-05-09T01:14:00.208Z,9.5
2018-05-09T01:15:00.210Z,9.5
2018-05-09T01:16:00.263Z,9.5
2018-05-09T01:17:00.299Z,9.6
2018-05-09T01:18:00.252Z,9.6
2018-05-09T01:19:00.469Z,9.6
2018-05-09T01:20:00.251Z,9.7
2018-05-09T01:21:00.189Z,9.7
2018-05-09T01:22:00.314Z,9.8
2018-05-09T01:23:00.169Z,9.8
2018-05-09T01:24:00.194Z,9.8
2018-05-09T01:25:00.217Z,9.8
2018-05-09T01:26:00.590Z,9.8
2018-05-09T01:27:00.562Z,9.8
2018-05-09T01:28:00.246Z,9.8
2018-05-09T01:29:00.210Z,9.8
2018-05-09T01:30:00.218Z,9.8
2018-05-09T01:31:00.209Z,9.8
2018-05-09T01:32:00.197Z,9.8
2018-05-09T01:33:00.218Z,9.9
2018-05-09T01:34:00.240Z,9.9
2018-05-09T01:35:00.223Z,9.9
2018-05-09T01:36:00.273Z,9.9
2018-05-09T01:37:00.218Z,9.9
2018-05-09T01:38:00.232Z,9.9
2018-05-09T01:39:00.162Z,9.9
2018-05-09T01:40:00.222Z,9.6
2018-05-09T01:41:00.211Z,9.6
2018-05-09T01:42:00.549Z,9.6
2018-05-09T01:43:00.532Z,9.6
2018-05-09T01:44:00.181Z,9.6
2018-05-09T01:45:00.239Z,9.5
2018-05-09T01:46:00.596Z,9.5
2018-05-09T01:47:00.224Z,9.5
2018-05-09T01:48:00.219Z,9.5
2018-05-09T01:49:00.230Z,9.5
2018-05-09T01:50:00.209Z,9.2
2018-05-09T01:51:00.251Z,9.2
2018-05-09T01:52:00.224Z,9.2
2018-05-09T01:53:00.620Z,9.2
2018-05-09T01:54:00.233Z,9.2
2018-05-09T01:55:00.367Z,9.1
2018-05-09T01:56:00.230Z,9.1
2018-05-09T01:57:00.276Z,9.1
2018-05-09T01:58:00.495Z,9.0
2018-05-09T01:59:00.605Z,9.0
2018-05-09T02:00:00.259Z,9.0
2018-05-09T02:01:00.313Z,8.8
2018-05-09T02:02:01.119Z,8.8
2018-05-09T02:03:00.326Z,8.8
2018-05-09T02:04:00.247Z,8.8
2018-05-09T02:05:00.301Z,8.8
2018-05-09T02:06:00.366Z,8.8
2018-05-09T02:07:00.257Z,8.8
2018-05-09T02:08:00.279Z,8.9
2018-05-09T02:09:00.270Z,8.9
2018-05-09T02:10:00.276Z,8.9
2018-05-09T02:11:00.304Z,8.9
2018-05-09T02:12:00.297Z,8.9
2018-05-09T02:13:00.299Z,8.9
2018-05-09T02:14:00.342Z,8.9
2018-05-09T02:15:00.274Z,8.9
2018-05-09T02:16:00.280Z,8.9
2018-05-09T02:17:00.343Z,8.9
2018-05-09T02:18:00.565Z,8.8
2018-05-09T02:19:00.311Z,8.8
2018-05-09T02:20:00.300Z,8.8
2018-05-09T02:21:00.601Z,8.8
2018-05-09T02:22:00.307Z,8.8
2018-05-09T02:23:00.335Z,8.8
2018-05-09T02:24:00.344Z,8.8
2018-05-09T02:25:00.562Z,8.8
2018-05-09T02:26:00.286Z,8.8
2018-05-09T02:27:10.678Z,8.8
2018-05-09T02:28:00.328Z,8.8
2018-05-09T02:29:00.391Z,8.8
2018-05-09T02:30:00.381Z,8.8
2018-05-09T02:31:00.325Z,8.7
2018-05-09T02:32:00.666Z,8.7
2018-05-09T02:33:00.318Z,8.7
2018-05-09T02:34:00.564Z,8.6
2018-05-09T02:35:00.337Z,8.6
2018-05-09T02:36:00.330Z,8.6
2018-05-09T02:37:00.345Z,8.6
2018-05-09T02:38:00.389Z,8.6
2018-05-09T02:39:00.369Z,8.6
2018-05-09T02:40:00.356Z,8.6
2018-05-09T02:41:00.681Z,8.5
2018-05-09T02:42:00.364Z,8.5
2018-05-09T02:43:00.684Z,8.5
2018-05-09T02:44:00.367Z,8.6
2018-05-09T02:45:00.483Z,8.6
2018-05-09T02:46:00.313Z,8.6
2018-05-09T02:47:00.390Z,8.6
2018-05-09T02:48:00.373Z,8.6
2018-05-09T02:49:00.577Z,8.6
2018-05-09T02:50:00.403Z,8.6
2018-05-09T02:51:00.370Z,8.6
2018-05-09T02:52:00.375Z,8.6
2018-05-09T02:53:00.659Z,8.6
2018-05-09T02:54:00.391Z,8.5
2018-05-09T02:55:00.398Z,8.5
2018-05-09T02:56:00.679Z,8.5
2018-05-09T02:57:00.368Z,8.5
2018-05-09T02:58:00.384Z,8.5
2018-05-09T02:59:00.316Z,8.5
2018-05-09T03:00:00.359Z,8.5
2018-05-09T03:01:00.641Z,8.5
2018-05-09T03:02:00.408Z,8.5
2018-05-09T03:03:00.418Z,8.5
2018-05-09T03:04:00.381Z,8.5
2018-05-09T03:05:00.473Z,8.5
2018-05-09T03:06:00.372Z,8.5
2018-05-09T03:07:00.384Z,8.5
2018-05-09T03:08:00.388Z,8.5
2018-05-09T03:09:00.665Z,8.5
2018-05-09T03:10:00.421Z,8.5
2018-05-09T03:11:00.436Z,8.5
2018-05-09T03:12:00.735Z,8.4
2018-05-09T03:13:00.558Z,8.4
2018-05-09T03:14:00.428Z,8.4
2018-05-09T03:15:00.435Z,8.4
2018-05-09T03:16:00.793Z,8.4
2018-05-09T03:17:00.439Z,8.4
2018-05-09T03:18:00.421Z,8.4
2018-05-09T03:19:00.488Z,8.4
2018-05-09T03:20:00.697Z,8.4
2018-05-09T03:21:00.686Z,8.4
2018-05-09T03:22:00.701Z,8.4
2018-05-09T03:23:00.477Z,8.4
2018-05-09T03:24:00.429Z,8.4
2018-05-09T03:25:00.448Z,8.4
2018-05-09T03:26:00.488Z,8.4
2018-05-09T03:27:00.538Z,8.3
2018-05-09T03:28:00.478Z,8.3
2018-05-09T03:29:00.534Z,8.3
2018-05-09T03:30:00.470Z,8.3
2018-05-09T03:31:00.476Z,8.3
2018-05-09T03:32:00.502Z,8.3
2018-05-09T03:33:00.484Z,8.3
2018-05-09T03:34:00.855Z,8.3
2018-05-09T03:35:00.496Z,8.3
2018-05-09T03:36:00.584Z,8.3
2018-05-09T03:37:00.534Z,8.3
2018-05-09T03:38:00.574Z,8.3
2018-05-09T03:39:00.514Z,8.3
2018-05-09T03:40:00.707Z,8.2
2018-05-09T03:41:00.523Z,8.2
2018-05-09T03:42:00.537Z,8.1
2018-05-09T03:43:00.491Z,8.1
2018-05-09T03:44:00.596Z,8.1
2018-05-09T03:45:00.564Z,8.0
2018-05-09T03:46:00.521Z,8.0
2018-05-09T03:47:00.545Z,8.0
2018-05-09T03:48:00.673Z,8.0
2018-05-09T03:49:00.587Z,8.0
2018-05-09T03:50:00.698Z,7.9
2018-05-09T03:51:00.575Z,7.9
2018-05-09T03:52:00.669Z,7.8
2018-05-09T03:53:00.647Z,7.8
2018-05-09T03:54:00.599Z,7.8
2018-05-09T03:55:00.573Z,7.7
2018-05-09T03:56:00.651Z,7.7
2018-05-09T03:57:00.919Z,7.6
2018-05-09T03:58:00.572Z,7.6
2018-05-09T03:59:00.607Z,7.6
2018-05-09T04:00:00.746Z,7.6
2018-05-09T04:01:00.773Z,7.6
2018-05-09T04:02:00.630Z,7.6
2018-05-09T04:03:01.052Z,7.6
2018-05-09T04:04:00.622Z,7.6
2018-05-09T04:05:00.698Z,7.5
2018-05-09T04:06:01.103Z,7.5
2018-05-09T04:07:00.712Z,7.5
2018-05-09T04:08:00.764Z,7.4
2018-05-09T04:09:00.749Z,7.4
2018-05-09T04:10:00.709Z,7.3
2018-05-09T04:11:00.781Z,7.3
2018-05-09T04:12:01.000Z,7.3
2018-05-09T04:13:00.825Z,7.3
2018-05-09T04:14:03.581Z,7.3
2018-05-09T04:15:01.500Z,7.1
2018-05-09T04:16:03.143Z,7.1
2018-05-09T04:17:02.183Z,7.1
2018-05-09T04:18:05.402Z,6.9
2018-05-09T04:19:06.451Z,6.9
2018-05-09T04:20:00.859Z,6.8
2018-05-09T04:21:01.412Z,6.8
2018-05-09T04:22:01.009Z,6.8
2018-05-09T04:23:01.034Z,7.0
2018-05-09T04:25:01.014Z,7.2
2018-05-09T04:27:05.505Z,7.2
2018-05-09T04:29:05.702Z,7.3
2018-05-09T04:30:06.627Z,7.3
2018-05-09T04:31:07.637Z,7.3
2018-05-09T04:32:01.039Z,7.3
2018-05-09T04:33:00.765Z,7.6
2018-05-09T04:34:00.787Z,7.6
2018-05-09T04:35:01.036Z,7.6
2018-05-09T04:36:01.096Z,7.6
2018-05-09T04:37:00.679Z,7.6
2018-05-09T04:38:00.689Z,7.8
2018-05-09T04:39:00.636Z,7.8
2018-05-09T04:40:00.597Z,7.8
2018-05-09T04:41:01.148Z,7.8
2018-05-09T04:42:00.769Z,7.8
2018-05-09T04:43:00.697Z,7.9
2018-05-09T04:44:00.980Z,7.9
2018-05-09T04:45:00.886Z,7.9
2018-05-09T04:46:00.672Z,7.9
2018-05-09T04:47:00.647Z,7.9
2018-05-09T04:48:00.998Z,7.8
2018-05-09T04:49:00.939Z,7.8
2018-05-09T04:50:00.583Z,7.8
2018-05-09T04:51:01.315Z,7.9
2018-05-09T04:52:00.702Z,7.9
2018-05-09T04:53:00.688Z,7.9
2018-05-09T04:54:00.682Z,7.9
2018-05-09T04:55:00.779Z,7.9
2018-05-09T04:56:00.939Z,8.2
2018-05-09T04:57:01.031Z,8.2
2018-05-09T04:58:01.021Z,8.4
2018-05-09T04:59:00.748Z,8.4
2018-05-09T05:00:00.667Z,8.4
2018-05-09T05:01:00.662Z,8.6
2018-05-09T05:02:00.642Z,8.6
2018-05-09T05:03:00.655Z,8.6
2018-05-09T05:04:00.730Z,9.0
2018-05-09T05:05:00.672Z,9.0
2018-05-09T05:06:01.297Z,9.4
2018-05-09T05:07:01.058Z,9.4
2018-05-09T05:08:00.910Z,9.4
2018-05-09T05:09:00.610Z,9.8
2018-05-09T05:10:00.686Z,9.8
2018-05-09T05:11:00.664Z,10.1
2018-05-09T05:12:00.579Z,10.1
2018-05-09T05:13:00.905Z,10.1
2018-05-09T05:14:00.680Z,10.0
2018-05-09T05:15:00.917Z,10.0
2018-05-09T05:16:00.683Z,10.1
2018-05-09T05:17:00.699Z,10.1
2018-05-09T05:18:00.862Z,10.1
2018-05-09T05:19:00.651Z,10.2
2018-05-09T05:20:00.819Z,10.2
2018-05-09T05:21:00.641Z,10.0
2018-05-09T05:22:00.694Z,10.0
2018-05-09T05:23:00.633Z,10.0
2018-05-09T05:24:00.733Z,10.1
2018-05-09T05:25:00.653Z,10.1
2018-05-09T05:26:00.653Z,10.2
2018-05-09T05:27:01.194Z,10.2
2018-05-09T05:28:00.649Z,10.2
2018-05-09T05:29:00.665Z,10.4
2018-05-09T05:30:00.687Z,10.4
2018-05-09T05:31:00.668Z,10.4
2018-05-09T05:32:00.970Z,10.4
2018-05-09T05:33:00.684Z,10.4
2018-05-09T05:34:00.733Z,10.4
2018-05-09T05:35:00.596Z,10.4
2018-05-09T05:36:00.983Z,10.4
2018-05-09T05:37:00.964Z,11.3
2018-05-09T05:38:00.696Z,11.3
2018-05-09T05:39:00.674Z,11.8
2018-05-09T05:40:00.727Z,11.8
2018-05-09T05:41:00.831Z,11.8
2018-05-09T05:42:00.655Z,12.2
2018-05-09T05:43:00.903Z,12.2
2018-05-09T05:44:00.636Z,12.5
2018-05-09T05:45:00.694Z,12.5
2018-05-09T05:46:00.638Z,12.5
2018-05-09T05:47:00.625Z,13.2
2018-05-09T05:48:00.952Z,13.2
2018-05-09T05:49:00.632Z,13.6
2018-05-09T05:50:00.721Z,13.6
2018-05-09T05:51:00.653Z,13.6
2018-05-09T05:52:00.981Z,14.3
2018-05-09T05:53:00.946Z,14.3
2018-05-09T05:54:00.947Z,14.9
2018-05-09T05:55:05.184Z,14.9
2018-05-09T05:56:00.849Z,14.9
2018-05-09T05:57:00.741Z,15.6
2018-05-09T05:58:00.769Z,15.6
2018-05-09T05:59:00.751Z,16.4
2018-05-09T06:00:00.968Z,16.4
2018-05-09T06:01:00.716Z,16.4
2018-05-09T06:02:01.736Z,16.9
2018-05-09T06:03:00.794Z,16.9
2018-05-09T06:04:01.606Z,16.9
2018-05-09T06:05:00.780Z,17.3
2018-05-09T06:06:01.156Z,17.3
2018-05-09T06:07:00.735Z,17.3
2018-05-09T06:08:00.917Z,17.3
2018-05-09T06:09:00.732Z,17.3
2018-05-09T06:10:00.802Z,17.2
2018-05-09T06:11:00.712Z,17.2
2018-05-09T06:12:00.726Z,17.0
2018-05-09T06:13:01.022Z,17.0
2018-05-09T06:14:00.719Z,17.0
2018-05-09T06:15:01.008Z,17.0
2018-05-09T06:16:00.987Z,17.0
2018-05-09T06:17:00.735Z,16.7
2018-05-09T06:18:00.736Z,16.7
2018-05-09T06:19:01.085Z,16.7
2018-05-09T06:20:00.869Z,16.0
2018-05-09T06:21:00.790Z,16.0
2018-05-09T06:22:00.759Z,16.0
2018-05-09T06:23:00.750Z,16.0
2018-05-09T06:24:00.872Z,16.0
2018-05-09T06:25:00.754Z,15.3
2018-05-09T06:26:00.760Z,15.3
2018-05-09T06:27:00.737Z,15.3
2018-05-09T06:28:00.737Z,15.3
2018-05-09T06:29:01.037Z,15.3
2018-05-09T06:30:01.031Z,15.5
2018-05-09T06:31:00.872Z,15.5
2018-05-09T06:32:01.041Z,16.1
2018-05-09T06:33:00.723Z,16.1
2018-05-09T06:34:01.005Z,16.1
2018-05-09T06:35:00.740Z,17.0
2018-05-09T06:36:01.057Z,17.0
2018-05-09T06:37:00.742Z,17.0
2018-05-09T06:38:00.804Z,17.8
2018-05-09T06:39:01.024Z,17.8
2018-05-09T06:40:01.063Z,18.5
2018-05-09T06:41:01.064Z,18.5
2018-05-09T06:42:01.071Z,18.5
2018-05-09T06:43:00.807Z,19.0
2018-05-09T06:44:01.091Z,19.0
2018-05-09T06:45:00.748Z,19.4
2018-05-09T06:46:00.795Z,19.4
2018-05-09T06:47:00.740Z,19.4
2018-05-09T06:48:00.801Z,19.9
2018-05-09T06:49:01.093Z,19.9
2018-05-09T06:50:00.926Z,19.8
2018-05-09T06:51:00.781Z,19.8
2018-05-09T06:52:00.785Z,19.8
2018-05-09T06:53:00.815Z,19.8
2018-05-09T06:54:00.787Z,19.8
2018-05-09T06:55:00.825Z,19.8
2018-05-09T06:56:00.801Z,19.8
2018-05-09T06:57:00.812Z,19.8
2018-05-09T06:58:00.790Z,19.8
2018-05-09T06:59:01.106Z,19.8
2018-05-09T07:00:00.953Z,20.1
2018-05-09T07:01:00.742Z,20.1
2018-05-09T07:02:00.911Z,20.1
2018-05-09T07:03:00.900Z,19.9
2018-05-09T07:04:00.807Z,19.9
2018-05-09T07:05:00.872Z,19.9
2018-05-09T07:06:00.767Z,19.8
2018-05-09T07:07:00.773Z,19.8
2018-05-09T07:08:01.159Z,19.6
2018-05-09T07:09:00.880Z,19.6
2018-05-09T07:10:01.703Z,19.6
2018-05-09T07:11:00.772Z,19.7
2018-05-09T07:12:00.812Z,19.7
2018-05-09T07:13:00.783Z,19.2
2018-05-09T07:14:00.800Z,19.2
2018-05-09T07:15:00.849Z,19.2
2018-05-09T07:16:00.798Z,19.2
2018-05-09T07:17:00.846Z,19.2
2018-05-09T07:18:01.119Z,19.9
2018-05-09T07:19:00.880Z,19.9
2018-05-09T07:20:00.808Z,19.9
2018-05-09T07:21:01.370Z,20.5
2018-05-09T07:22:00.876Z,20.5
2018-05-09T07:23:00.854Z,21.0
2018-05-09T07:24:00.809Z,21.0
2018-05-09T07:25:01.159Z,21.0
2018-05-09T07:26:01.206Z,20.6
2018-05-09T07:27:01.256Z,20.6
2018-05-09T07:28:00.862Z,20.8
2018-05-09T07:29:01.235Z,20.8
2018-05-09T07:30:00.875Z,20.8
2018-05-09T07:31:00.914Z,20.3
2018-05-09T07:32:00.891Z,20.3
2018-05-09T07:33:00.875Z,19.1
2018-05-09T07:34:00.882Z,19.1
2018-05-09T07:35:01.022Z,19.1
2018-05-09T07:36:00.908Z,19.1
2018-05-09T07:37:00.868Z,19.1
2018-05-09T07:38:00.867Z,19.1
2018-05-09T07:39:00.877Z,18.8
2018-05-09T07:40:01.205Z,18.8
2018-05-09T07:41:00.866Z,18.6
2018-05-09T07:42:00.872Z,18.6
2018-05-09T07:43:00.913Z,18.6
2018-05-09T07:44:00.911Z,18.5
2018-05-09T07:45:00.936Z,18.5
2018-05-09T07:46:01.268Z,18.8
2018-05-09T07:47:00.887Z,18.8
2018-05-09T07:48:00.956Z,18.8
2018-05-09T07:49:01.205Z,19.2
2018-05-09T07:50:01.170Z,19.2
2018-05-09T07:51:00.946Z,20.0
2018-05-09T07:52:00.868Z,20.0
2018-05-09T07:53:00.895Z,20.0
2018-05-09T07:54:00.940Z,19.8
2018-05-09T07:55:00.907Z,19.8
2018-05-09T07:56:00.968Z,19.9
2018-05-09T07:57:01.163Z,19.9
2018-05-09T07:58:00.929Z,19.9
2018-05-09T07:59:00.868Z,20.5
2018-05-09T08:00:00.949Z,20.5
2018-05-09T08:01:01.206Z,21.0
2018-05-09T08:02:00.908Z,21.0
2018-05-09T08:03:01.150Z,21.0
2018-05-09T08:04:00.951Z,21.2
2018-05-09T08:05:01.400Z,21.2
2018-05-09T08:06:01.014Z,21.2
2018-05-09T08:07:00.896Z,20.2
2018-05-09T08:08:00.889Z,20.2
2018-05-09T08:09:00.901Z,20.4
2018-05-09T08:10:00.874Z,20.4
2018-05-09T08:11:01.193Z,20.4
2018-05-09T08:12:00.918Z,20.8
2018-05-09T08:13:00.949Z,20.8
2018-05-09T08:14:00.960Z,21.2
2018-05-09T08:15:00.941Z,21.2
2018-05-09T08:16:00.969Z,21.2
2018-05-09T08:17:00.891Z,21.2
2018-05-09T08:18:01.022Z,21.2
2018-05-09T08:19:00.892Z,21.7
2018-05-09T08:20:00.916Z,21.7
2018-05-09T08:21:00.962Z,21.7
2018-05-09T08:22:01.260Z,20.8
2018-05-09T08:23:00.956Z,20.8
2018-05-09T08:24:01.182Z,20.3
2018-05-09T08:25:00.895Z,20.3
2018-05-09T08:26:00.942Z,20.3
2018-05-09T08:27:03.471Z,20.8
2018-05-09T08:28:00.976Z,20.8
2018-05-09T08:29:00.950Z,20.5
2018-05-09T08:30:01.269Z,20.5
2018-05-09T08:31:01.004Z,20.5
2018-05-09T08:32:00.908Z,20.8
2018-05-09T08:33:00.935Z,20.8
2018-05-09T08:34:00.925Z,20.9
2018-05-09T08:35:00.935Z,20.9
2018-05-09T08:36:01.241Z,20.9
2018-05-09T08:37:01.207Z,21.1
2018-05-09T08:38:00.919Z,21.1
2018-05-09T08:39:00.962Z,21.1
2018-05-09T08:40:00.993Z,21.7
2018-05-09T08:41:00.978Z,21.7
2018-05-09T08:42:00.981Z,21.7
2018-05-09T08:43:00.988Z,21.7
2018-05-09T08:44:01.114Z,21.7
2018-05-09T08:45:00.953Z,21.8
2018-05-09T08:46:00.966Z,21.8
2018-05-09T08:47:00.952Z,22.4
2018-05-09T08:48:01.259Z,22.4
2018-05-09T08:49:00.929Z,22.4
2018-05-09T08:50:01.021Z,21.7
2018-05-09T08:51:00.978Z,21.7
2018-05-09T08:52:00.986Z,21.6
2018-05-09T08:53:01.251Z,21.6
2018-05-09T08:54:00.985Z,21.6
2018-05-09T08:55:00.977Z,21.5
2018-05-09T08:56:01.052Z,21.5
2018-05-09T08:57:01.033Z,21.5
2018-05-09T08:58:00.977Z,21.5
2018-05-09T08:59:01.218Z,21.5
2018-05-09T09:00:01.256Z,21.5
2018-05-09T09:01:01.050Z,21.5
2018-05-09T09:02:00.956Z,22.0
2018-05-09T09:03:00.977Z,22.0
2018-05-09T09:04:00.982Z,22.0
2018-05-09T09:05:01.390Z,22.6
2018-05-09T09:06:00.967Z,22.6
2018-05-09T09:07:01.439Z,22.6
2018-05-09T09:08:01.082Z,23.2
2018-05-09T09:09:00.969Z,23.2
2018-05-09T09:10:01.360Z,21.1
2018-05-09T09:11:01.042Z,21.1
2018-05-09T09:12:00.974Z,21.1
2018-05-09T09:13:00.983Z,20.9
2018-05-09T09:14:01.014Z,20.9
2018-05-09T09:15:00.985Z,21.2
2018-05-09T09:16:01.059Z,21.2
2018-05-09T09:17:01.414Z,21.2
2018-05-09T09:18:01.033Z,20.9
2018-05-09T09:19:01.644Z,20.9
2018-05-09T09:20:01.359Z,20.6
2018-05-09T09:21:01.950Z,20.6
2018-05-09T09:22:01.394Z,20.6
2018-05-09T09:23:01.071Z,20.2
2018-05-09T09:24:01.487Z,20.2
2018-05-09T09:25:01.121Z,20.6
2018-05-09T09:26:01.054Z,20.6
2018-05-09T09:27:01.084Z,20.6
2018-05-09T09:28:01.384Z,20.9
2018-05-09T09:29:01.055Z,20.9
2018-05-09T09:30:01.135Z,20.8
2018-05-09T09:31:01.090Z,20.8
2018-05-09T09:32:01.115Z,20.8
2018-05-09T09:33:01.241Z,21.0
2018-05-09T09:34:01.044Z,21.0
2018-05-09T09:35:01.308Z,20.9
2018-05-09T09:36:01.109Z,20.9
2018-05-09T09:37:01.075Z,20.9
2018-05-09T09:38:01.018Z,20.9
2018-05-09T09:39:01.072Z,20.9
2018-05-09T09:40:01.360Z,20.9
2018-05-09T09:41:01.120Z,20.4
2018-05-09T09:42:01.245Z,20.4
2018-05-09T09:43:01.006Z,20.4
2018-05-09T09:44:01.089Z,20.4
2018-05-09T09:45:01.130Z,20.4
2018-05-09T09:46:01.080Z,20.4
2018-05-09T09:47:01.081Z,20.4
2018-05-09T09:48:01.372Z,20.6
2018-05-09T09:49:01.489Z,20.6
2018-05-09T09:50:01.362Z,20.6
2018-05-09T09:51:01.128Z,20.6
2018-05-09T09:52:01.116Z,20.6
2018-05-09T09:53:01.125Z,20.8
2018-05-09T09:54:01.202Z,20.8
2018-05-09T09:55:01.490Z,20.8
2018-05-09T09:56:01.216Z,21.2
2018-05-09T09:57:01.084Z,21.2
2018-05-09T09:58:01.108Z,21.9
2018-05-09T09:59:01.184Z,21.9
2018-05-09T10:00:01.171Z,21.9
2018-05-09T10:01:01.127Z,22.0
2018-05-09T10:02:01.132Z,22.0
2018-05-09T10:03:01.143Z,21.9
2018-05-09T10:04:01.055Z,21.9
2018-05-09T10:05:01.176Z,21.9
2018-05-09T10:06:01.132Z,22.0
2018-05-09T10:07:01.446Z,22.0
2018-05-09T10:08:01.181Z,22.0
2018-05-09T10:09:01.063Z,21.9
2018-05-09T10:10:01.058Z,21.9
2018-05-09T10:11:01.362Z,21.3
2018-05-09T10:12:01.092Z,21.3
2018-05-09T10:13:01.114Z,21.3
2018-05-09T10:14:01.110Z,21.3
2018-05-09T10:15:01.154Z,21.3
2018-05-09T10:16:01.301Z,20.9
2018-05-09T10:17:01.126Z,20.9
2018-05-09T10:18:01.157Z,20.9
2018-05-09T10:19:01.157Z,20.9
2018-05-09T10:20:01.451Z,20.9
2018-05-09T10:21:01.376Z,21.5
2018-05-09T10:22:01.213Z,21.5
2018-05-09T10:23:01.186Z,21.5
2018-05-09T10:24:01.227Z,21.4
2018-05-09T10:25:01.146Z,21.4
2018-05-09T10:26:01.205Z,21.6
2018-05-09T10:27:01.200Z,21.6
2018-05-09T10:28:01.312Z,21.6
2018-05-09T10:29:01.261Z,21.8
2018-05-09T10:30:01.181Z,21.8
2018-05-09T10:31:01.141Z,22.3
2018-05-09T10:32:01.167Z,22.3
2018-05-09T10:33:01.226Z,22.3
2018-05-09T10:34:01.496Z,22.3
2018-05-09T10:35:01.239Z,22.3
2018-05-09T10:36:01.334Z,22.8
2018-05-09T10:37:01.249Z,22.8
2018-05-09T10:38:01.185Z,22.8
2018-05-09T10:39:01.172Z,22.6
2018-05-09T10:40:01.208Z,22.6
2018-05-09T10:41:01.198Z,22.6
2018-05-09T10:42:01.490Z,21.8
2018-05-09T10:43:01.617Z,21.8
2018-05-09T10:44:01.329Z,21.8
2018-05-09T10:45:01.199Z,21.8
2018-05-09T10:46:01.918Z,21.8
2018-05-09T10:47:01.196Z,22.2
2018-05-09T10:48:01.360Z,22.2
2018-05-09T10:49:01.227Z,22.7
2018-05-09T10:50:01.619Z,22.7
2018-05-09T10:51:01.519Z,22.7
2018-05-09T10:52:01.327Z,23.2
2018-05-09T10:53:01.225Z,23.2
2018-05-09T10:54:01.351Z,23.0
2018-05-09T10:55:01.186Z,23.0
2018-05-09T10:56:01.299Z,23.0
2018-05-09T10:57:01.363Z,22.5
2018-05-09T10:58:01.321Z,22.5
2018-05-09T10:59:01.321Z,22.5
2018-05-09T11:00:01.363Z,22.5
2018-05-09T11:01:01.252Z,22.5
2018-05-09T11:02:11.442Z,22.6
2018-05-09T11:03:01.296Z,22.6
2018-05-09T11:04:01.295Z,22.6
2018-05-09T11:05:01.303Z,22.6
2018-05-09T11:06:01.382Z,22.6
2018-05-09T11:07:01.288Z,23.2
2018-05-09T11:08:01.717Z,23.2
2018-05-09T11:09:01.252Z,23.2
2018-05-09T11:10:01.274Z,23.6
2018-05-09T11:11:01.243Z,23.6
2018-05-09T11:12:01.589Z,23.7
2018-05-09T11:13:01.254Z,23.7
2018-05-09T11:14:01.708Z,23.7
2018-05-09T11:15:01.249Z,23.8
2018-05-09T11:16:01.271Z,23.8
2018-05-09T11:17:01.649Z,22.6
2018-05-09T11:18:01.405Z,22.6
2018-05-09T11:19:01.273Z,22.6
2018-05-09T11:20:01.364Z,22.6
2018-05-09T11:21:01.303Z,22.6
2018-05-09T11:22:01.347Z,22.7
2018-05-09T11:23:01.546Z,22.7
2018-05-09T11:24:01.306Z,22.7
2018-05-09T11:25:01.298Z,22.7
2018-05-09T11:26:01.370Z,22.7
2018-05-09T11:27:01.304Z,22.4
2018-05-09T11:28:01.342Z,22.4
2018-05-09T11:29:01.539Z,22.4
2018-05-09T11:30:01.598Z,22.7
2018-05-09T11:31:01.273Z,22.7
2018-05-09T11:32:01.339Z,23.4
2018-05-09T11:33:01.271Z,23.4
2018-05-09T11:34:01.292Z,23.4
2018-05-09T11:35:01.308Z,23.6
2018-05-09T11:36:01.373Z,23.6
2018-05-09T11:37:01.409Z,23.3
2018-05-09T11:38:01.410Z,23.3
2018-05-09T11:39:01.615Z,23.3
2018-05-09T11:40:01.336Z,23.3
2018-05-09T11:41:01.259Z,23.3
2018-05-09T11:42:01.283Z,23.3
2018-05-09T11:43:01.637Z,22.4
2018-05-09T11:44:01.568Z,22.4
2018-05-09T11:45:01.274Z,22.1
2018-05-09T11:46:01.307Z,22.1
2018-05-09T11:47:01.341Z,22.1
2018-05-09T11:48:01.311Z,22.6
2018-05-09T11:49:01.291Z,22.6
2018-05-09T11:50:01.290Z,22.6
2018-05-09T11:51:01.317Z,22.6
2018-05-09T11:52:01.349Z,22.6
2018-05-09T11:53:01.401Z,23.2
2018-05-09T11:54:01.393Z,23.2
2018-05-09T11:55:01.596Z,23.4
2018-05-09T11:56:01.417Z,23.4
2018-05-09T11:57:01.581Z,23.4
2018-05-09T11:58:01.385Z,23.1
2018-05-09T11:59:01.613Z,23.1
2018-05-09T12:00:01.331Z,22.9
2018-05-09T12:01:01.417Z,22.9
2018-05-09T12:02:01.339Z,22.9
2018-05-09T12:03:01.611Z,23.5
2018-05-09T12:04:01.437Z,23.5
2018-05-09T12:05:01.361Z,24.2
2018-05-09T12:06:01.331Z,24.2
2018-05-09T12:07:01.402Z,24.2
2018-05-09T12:08:01.728Z,25.2
2018-05-09T12:09:01.425Z,25.2
2018-05-09T12:10:01.493Z,25.2
2018-05-09T12:11:01.628Z,24.8
2018-05-09T12:12:01.364Z,24.8
2018-05-09T12:13:01.404Z,24.8
2018-05-09T12:14:01.701Z,24.8
2018-05-09T12:15:01.603Z,24.8
2018-05-09T12:16:01.662Z,24.3
2018-05-09T12:17:01.490Z,24.3
2018-05-09T12:18:01.397Z,24.2
2018-05-09T12:19:01.768Z,24.2
2018-05-09T12:20:01.415Z,24.2
2018-05-09T12:21:01.406Z,24.2
2018-05-09T12:22:01.679Z,24.2
2018-05-09T12:23:01.647Z,24.4
2018-05-09T12:24:02.507Z,24.4
2018-05-09T12:25:01.462Z,24.4
2018-05-09T12:26:01.445Z,24.3
2018-05-09T12:27:01.523Z,24.3
2018-05-09T12:28:01.435Z,24.3
2018-05-09T12:29:01.395Z,24.3
2018-05-09T12:30:01.787Z,24.3
2018-05-09T12:31:01.377Z,24.4
2018-05-09T12:32:01.404Z,24.4
2018-05-09T12:33:01.664Z,24.8
2018-05-09T12:34:01.533Z,24.8
2018-05-09T12:35:01.471Z,24.8
2018-05-09T12:36:01.397Z,24.7
2018-05-09T12:37:01.398Z,24.7
2018-05-09T12:38:01.396Z,24.8
2018-05-09T12:39:02.758Z,24.8
2018-05-09T12:40:01.500Z,24.8
2018-05-09T12:41:01.502Z,24.8
2018-05-09T12:42:01.775Z,24.8
2018-05-09T12:43:01.465Z,24.8
2018-05-09T12:44:01.770Z,25.1
2018-05-09T12:45:01.400Z,25.1
2018-05-09T12:46:01.808Z,25.2
2018-05-09T12:47:01.715Z,25.2
2018-05-09T12:48:01.420Z,25.2
2018-05-09T12:49:01.470Z,25.4
2018-05-09T12:50:01.449Z,25.4
2018-05-09T12:51:01.464Z,25.0
2018-05-09T12:52:01.497Z,25.0
2018-05-09T12:53:01.474Z,25.0
2018-05-09T12:54:01.775Z,24.8
2018-05-09T12:55:01.835Z,24.8
2018-05-09T12:56:01.488Z,24.8
2018-05-09T12:57:01.542Z,24.8
2018-05-09T12:58:01.496Z,24.8
2018-05-09T12:59:01.529Z,25.5
2018-05-09T13:00:01.458Z,25.5
2018-05-09T13:01:01.505Z,25.5
2018-05-09T13:02:01.495Z,25.5
2018-05-09T13:03:01.763Z,25.5
2018-05-09T13:04:01.535Z,25.2
2018-05-09T13:05:01.509Z,25.2
2018-05-09T13:06:01.500Z,24.8
2018-05-09T13:07:01.538Z,24.8
2018-05-09T13:08:01.491Z,24.8
2018-05-09T13:09:01.853Z,24.9
2018-05-09T13:10:01.761Z,24.9
2018-05-09T13:11:01.768Z,24.9
2018-05-09T13:12:01.533Z,24.6
2018-05-09T13:13:01.489Z,24.6
2018-05-09T13:14:01.535Z,25.2
2018-05-09T13:15:01.773Z,25.2
2018-05-09T13:16:01.548Z,25.2
2018-05-09T13:17:01.493Z,25.4
2018-05-09T13:18:01.695Z,25.4
2018-05-09T13:19:01.469Z,25.4
2018-05-09T13:20:01.446Z,25.4
2018-05-09T13:21:01.536Z,25.4
2018-05-09T13:22:01.646Z,25.2
2018-05-09T13:23:01.531Z,25.2
2018-05-09T13:24:01.513Z,25.2
2018-05-09T13:25:01.605Z,25.2
2018-05-09T13:26:01.509Z,25.2
2018-05-09T13:27:01.560Z,25.5
2018-05-09T13:28:01.520Z,25.5
2018-05-09T13:29:01.880Z,25.5
2018-05-09T13:30:01.837Z,25.5
2018-05-09T13:31:01.816Z,25.5